Hauptseite
METAR-TAF:

METAR-TAF

Flughäfen :

Geilenkirchen, Deutschland

NATO-Flugplatz Geilenkirchen

Breite: 50-57-39N, Länge: 006-2-33E, Höhe: 90 m

METAR: fehlend

Zeit: 02:41 (01:41 UTC)

Prognose

Neuester Wetterbericht von vor 8 Stunden und 41 Minuten, um 17:00 UTC
Gültige Prognose vom 23 um 18 UTC bis 24 um 09 UTC
Wind 10 kt aus Ost, Böen bis zu 15 kt
Sichtweite 10 km oder mehr
keine Wolken unter 1500 m und keine Kumulonimbus oder Gewitterwolken

TAF: ETNG 231700Z 2318/2409 08010G15KT CAVOK

Wetterbeobachtungen und Prognosen von mehr als 4000 Flughäfen (METAR und TAF Bericht).

Die verfügbaren Stationen werden durch gelbe und rote Markierungen auf der Karte dargestellt.

Führen Sie die Maus auf sie, um den Namen der Station zu sehen.

Darauf klicken, um die Beobachtung von Wetterbeobachtungen und Prognosen zu sehen.

Um die Karte zu ändern : klicken Sie auf den grünen Tasten mit einem schwarzen Kreuz Zum Vergrößern, auf den grünen Button mit einem Gedankenstrich zu verkleinern, oder auf die grünen Pfeile für benachbarte Karten.


METAR-TAF: